URKA

Details ICAO URKA (AAQ)
Name Vityazevo
Region Russia
Timezone Europe/Moscow (UTC+3.0)
Plans Departing 127
Arriving 127
Stats Elevation 173 ft / 53 m (AMSL)
Location 45.001895° 37.347609°
Runways 2
Magnetic Variation 7.172° E
Sunrise 2017-12-17 05:04:44 UTC / 2017-12-17 08:04:44 Local
Sunset 2017-12-17 13:51:22 UTC / 2017-12-17 16:51:22 Local
Advertisement - Login to hide

Runways

ID Width Length Bearing (true) Bearing (mag) Surface Threshold Offset Overrun Length
04 138 ft / 42 m 7,961 ft / 2,426 m 43.79° 36.62° Concrete 0 ft / 0 m 157 ft / 48 m
04R 312 ft / 95 m 8,009 ft / 2,441 m 43.78° 36.61° Grass 0 ft / 0 m 0 ft / 0 m
22 138 ft / 42 m 7,961 ft / 2,426 m 223.81° 216.64° Concrete 0 ft / 0 m 164 ft / 50 m
22L 312 ft / 95 m 8,009 ft / 2,441 m 223.80° 216.63° Grass 0 ft / 0 m 0 ft / 0 m

Map

Weather


0- 5 10 15 20 25 30 35+ Temperature / ° C

Clouds and Precipitation
Forecast for 2017-12-17 06:00 UTC. Updated 2 hours ago

Ground ~20,000 ft ~40,000 ft Winds

METAR

URKA 170230Z AUTO 14006MPS 9999 // NCD 11/08 Q1015 RMK QFE757/1010

TAF

TAF TAF URKA 170159Z 1703/1803 15007G12MPS 9999 SCT020 TEMPO 1703/1706 3100 BR SCT011 BKN020 TEMPO 1706/1718 18011G16MPS

Frequencies

Tower 119.80 MHz ANAPA KRUG
Approach 118.70 MHz ANAPA APP
Warning: Do not use this data for real-world aviation or navigation. No guarantee of current accuracy is given.